createdAt,value
2018-07-30T00:01:36.692Z,97771.43
2018-07-30T00:04:04.408Z,97771.34
2018-07-30T00:06:32.000Z,97774.84
2018-07-30T00:08:59.650Z,97763.98
2018-07-30T00:11:27.251Z,97765.31
2018-07-30T00:13:54.843Z,97765.50
2018-07-30T00:16:22.539Z,97765.50
2018-07-30T00:18:50.153Z,97757.66
2018-07-30T00:21:18.120Z,97762.02
2018-07-30T00:23:45.782Z,97764.86
2018-07-30T00:26:13.511Z,97766.70
2018-07-30T00:28:41.100Z,97766.14
2018-07-30T00:31:08.818Z,97767.97
2018-07-30T00:33:36.441Z,97763.53
2018-07-30T00:36:05.012Z,97767.97
2018-07-30T00:38:32.597Z,97762.78
2018-07-30T00:41:00.384Z,97758.10
2018-07-30T00:43:29.116Z,97765.63
2018-07-30T00:45:56.671Z,97761.38
2018-07-30T00:48:24.300Z,97760.66
2018-07-30T00:50:51.934Z,97761.32
2018-07-30T00:53:19.559Z,97763.82
2018-07-30T00:55:47.539Z,97768.56
2018-07-30T00:58:16.196Z,97764.82
2018-07-30T01:00:43.827Z,97772.34
2018-07-30T01:03:11.425Z,97763.34
2018-07-30T01:05:39.029Z,97765.85
2018-07-30T01:08:07.416Z,97767.09
2018-07-30T01:10:35.032Z,97767.94
2018-07-30T01:13:02.624Z,97764.86
2018-07-30T01:15:30.235Z,97770.03
2018-07-30T01:17:57.816Z,97760.17
2018-07-30T01:20:25.805Z,97763.25
2018-07-30T01:22:53.408Z,97762.41
2018-07-30T01:25:21.043Z,97764.97
2018-07-30T01:27:48.681Z,97769.84
2018-07-30T01:30:16.231Z,97769.78
2018-07-30T01:32:43.868Z,97762.50
2018-07-30T01:35:11.440Z,97769.60
2018-07-30T01:37:39.073Z,97763.77
2018-07-30T01:40:06.743Z,97766.16
2018-07-30T01:42:34.388Z,97767.64
2018-07-30T01:45:02.032Z,97769.83
2018-07-30T01:47:29.643Z,97771.77
2018-07-30T01:49:57.208Z,97774.23
2018-07-30T01:52:24.792Z,97768.70
2018-07-30T01:54:52.409Z,97772.95
2018-07-30T01:57:19.981Z,97779.23
2018-07-30T01:59:47.555Z,97778.56
2018-07-30T02:02:15.218Z,97773.89
2018-07-30T02:04:42.804Z,97774.08
2018-07-30T02:07:10.541Z,97774.84
2018-07-30T02:09:38.172Z,97777.44
2018-07-30T02:12:05.761Z,97775.36
2018-07-30T02:14:33.369Z,97778.35
2018-07-30T02:17:01.076Z,97782.80
2018-07-30T02:19:28.658Z,97781.71
2018-07-30T02:21:56.251Z,97779.52
2018-07-30T02:24:24.055Z,97781.53
2018-07-30T02:26:51.651Z,97779.38
2018-07-30T02:29:19.239Z,97780.87
2018-07-30T02:31:46.861Z,97780.87
2018-07-30T02:34:14.467Z,97786.91
2018-07-30T02:36:42.430Z,97782.74
2018-07-30T02:39:12.529Z,97780.63
2018-07-30T02:41:40.473Z,97784.78
2018-07-30T02:44:08.170Z,97782.75
2018-07-30T02:46:35.797Z,97789.70
2018-07-30T02:49:03.374Z,97789.09
2018-07-30T02:51:31.060Z,97792.50
2018-07-30T02:53:58.703Z,97795.01
2018-07-30T02:56:26.292Z,97791.56
2018-07-30T02:58:53.958Z,97796.33
2018-07-30T03:01:21.539Z,97797.56
2018-07-30T03:03:49.175Z,97797.56
2018-07-30T03:06:16.844Z,97798.73
2018-07-30T03:08:44.444Z,97797.61
2018-07-30T03:11:12.042Z,97801.56
2018-07-30T03:13:39.612Z,97805.25
2018-07-30T03:16:07.547Z,97800.78
2018-07-30T03:18:35.435Z,97803.94
2018-07-30T03:21:03.319Z,97805.65
2018-07-30T03:23:30.934Z,97796.22
2018-07-30T03:25:58.507Z,97802.91
2018-07-30T03:28:26.192Z,97804.33
2018-07-30T03:30:53.811Z,97801.86
2018-07-30T03:33:21.784Z,97801.77
2018-07-30T03:35:49.344Z,97798.40
2018-07-30T03:38:16.944Z,97795.47
2018-07-30T03:40:44.612Z,97794.52
2018-07-30T03:43:12.251Z,97794.71
2018-07-30T03:45:39.887Z,97799.09
2018-07-30T03:48:07.544Z,97803.97
2018-07-30T03:50:35.139Z,97807.75
2018-07-30T03:53:02.804Z,97808.13
2018-07-30T03:55:30.439Z,97809.78
2018-07-30T03:57:58.033Z,97805.81
2018-07-30T04:00:25.736Z,97807.45
2018-07-30T04:02:53.289Z,97811.61
2018-07-30T04:05:20.871Z,97812.62
2018-07-30T04:07:48.499Z,97817.82
2018-07-30T04:10:16.122Z,97812.90
2018-07-30T04:12:43.734Z,97811.39
2018-07-30T04:15:11.340Z,97809.78
2018-07-30T04:17:38.921Z,97806.25
2018-07-30T04:20:06.567Z,97812.05
2018-07-30T04:22:34.192Z,97805.05
2018-07-30T04:25:01.793Z,97808.20
2018-07-30T04:27:29.407Z,97810.95
2018-07-30T04:29:57.055Z,97807.45
2018-07-30T04:32:24.659Z,97809.78
2018-07-30T04:34:52.265Z,97811.73
2018-07-30T04:37:20.339Z,97813.37
2018-07-30T04:39:47.996Z,97813.37
2018-07-30T04:42:15.564Z,97798.53
2018-07-30T04:44:43.223Z,97802.03
2018-07-30T04:47:10.817Z,97807.04
2018-07-30T04:49:39.079Z,97805.12
2018-07-30T04:52:06.835Z,97813.91
2018-07-30T04:54:34.458Z,97807.23
2018-07-30T04:57:02.114Z,97810.09
2018-07-30T04:59:29.795Z,97807.77
2018-07-30T05:01:57.688Z,97813.69
2018-07-30T05:04:25.264Z,97814.45
2018-07-30T05:06:52.938Z,97814.58
2018-07-30T05:09:20.571Z,97808.14
2018-07-30T05:11:48.135Z,97807.44
2018-07-30T05:14:15.764Z,97814.41
2018-07-30T05:16:43.328Z,97809.83
2018-07-30T05:19:10.898Z,97814.96
2018-07-30T05:21:38.543Z,97809.81
2018-07-30T05:24:06.164Z,97821.78
2018-07-30T05:26:33.748Z,97822.13
2018-07-30T05:29:01.369Z,97826.81
2018-07-30T05:31:29.967Z,97826.24
2018-07-30T05:33:57.584Z,97823.22
2018-07-30T05:36:25.200Z,97828.17
2018-07-30T05:38:52.787Z,97827.84
2018-07-30T05:41:20.447Z,97832.35
2018-07-30T05:43:48.099Z,97837.58
2018-07-30T05:46:15.675Z,97838.54
2018-07-30T05:48:43.266Z,97842.02
2018-07-30T05:51:10.908Z,97841.53
2018-07-30T05:53:38.523Z,97845.94
2018-07-30T05:56:07.823Z,97841.84
2018-07-30T05:58:35.506Z,97846.54
2018-07-30T06:01:03.197Z,97842.86
2018-07-30T06:03:30.813Z,97850.44
2018-07-30T06:05:58.980Z,97850.86
2018-07-30T06:08:26.564Z,97846.94
2018-07-30T06:10:54.144Z,97854.29
2018-07-30T06:13:21.898Z,97860.97
2018-07-30T06:15:49.504Z,97863.05
2018-07-30T06:18:17.107Z,97870.79
2018-07-30T06:20:44.767Z,97870.69
2018-07-30T06:23:12.400Z,97870.62
2018-07-30T06:25:39.995Z,97865.13
2018-07-30T06:28:07.667Z,97867.34
2018-07-30T06:30:35.269Z,97870.11
2018-07-30T06:33:02.873Z,97870.36
2018-07-30T06:35:30.535Z,97880.45
2018-07-30T06:37:58.105Z,97876.16
2018-07-30T06:40:25.715Z,97879.15
2018-07-30T06:42:53.333Z,97880.32
2018-07-30T06:45:20.900Z,97883.59
2018-07-30T06:47:48.590Z,97888.97
2018-07-30T06:50:16.636Z,97885.31
2018-07-30T06:52:44.350Z,97892.02
2018-07-30T06:55:12.049Z,97890.61
2018-07-30T06:57:39.819Z,97889.84
2018-07-30T07:00:11.093Z,97893.28
2018-07-30T07:02:39.337Z,97899.16
2018-07-30T07:05:11.387Z,97899.31
2018-07-30T07:07:39.510Z,97897.41
2018-07-30T07:10:17.051Z,97901.50
2018-07-30T07:12:45.012Z,97898.23
2018-07-30T07:15:24.191Z,97897.54
2018-07-30T07:17:54.457Z,97900.45
2018-07-30T07:20:45.122Z,97896.38
2018-07-30T07:23:12.987Z,97894.91
2018-07-30T07:25:43.519Z,97898.77
2018-07-30T07:28:13.524Z,97903.55
2018-07-30T07:30:41.676Z,97905.52
2018-07-30T07:33:10.844Z,97904.91
2018-07-30T07:35:38.739Z,97903.95
2018-07-30T07:38:06.441Z,97906.11
2018-07-30T07:40:34.135Z,97905.60
2018-07-30T07:43:01.824Z,97901.39
2018-07-30T07:45:29.428Z,97902.83
2018-07-30T07:47:57.040Z,97906.41
2018-07-30T07:50:24.974Z,97910.34
2018-07-30T07:52:52.529Z,97907.38
2018-07-30T07:55:20.137Z,97910.69
2018-07-30T07:57:47.797Z,97910.12
2018-07-30T08:00:15.739Z,97915.91
2018-07-30T08:02:43.316Z,97912.97
2018-07-30T08:05:10.960Z,97907.82
2018-07-30T08:07:38.577Z,97915.80
2018-07-30T08:10:06.940Z,97920.92
2018-07-30T08:12:34.864Z,97922.72
2018-07-30T08:15:02.541Z,97915.70
2018-07-30T08:17:30.563Z,97910.09
2018-07-30T08:19:58.192Z,97909.05
2018-07-30T08:22:25.833Z,97914.06
2018-07-30T08:24:53.508Z,97914.42
2018-07-30T08:27:21.177Z,97916.85
2018-07-30T08:29:48.808Z,97907.95
2018-07-30T08:32:16.451Z,97904.78
2018-07-30T08:34:44.100Z,97902.58
2018-07-30T08:37:11.723Z,97913.36
2018-07-30T08:39:39.304Z,97900.72
2018-07-30T08:42:07.006Z,97901.38
2018-07-30T08:44:35.003Z,97895.80
2018-07-30T08:47:02.716Z,97908.73
2018-07-30T08:49:30.355Z,97902.42
2018-07-30T08:52:01.675Z,97899.36
2018-07-30T08:54:29.328Z,97902.21
2018-07-30T08:56:57.881Z,97907.66
2018-07-30T08:59:26.746Z,97904.16
2018-07-30T09:01:56.129Z,97904.69
2018-07-30T09:04:31.855Z,97899.44
2018-07-30T09:07:07.076Z,97896.19
2018-07-30T09:09:44.755Z,97898.32
2018-07-30T09:12:23.327Z,97900.45
2018-07-30T09:26:58.447Z,97898.94
2018-07-30T09:29:58.658Z,97895.95
2018-07-30T10:12:03.093Z,97884.88
2018-07-30T10:14:35.667Z,97892.61
2018-07-30T10:17:07.366Z,97887.52
2018-07-30T10:19:38.139Z,97882.76
2018-07-30T10:22:06.525Z,97888.95
2018-07-30T10:24:34.290Z,97880.19
2018-07-30T10:27:02.568Z,97877.47
2018-07-30T10:29:31.738Z,97875.72
2018-07-30T10:31:59.916Z,97875.13
2018-07-30T10:34:27.858Z,97876.02
2018-07-30T10:36:55.551Z,97870.74
2018-07-30T10:39:23.196Z,97873.73
2018-07-30T10:41:50.926Z,97871.71
2018-07-30T10:44:18.549Z,97866.50
2018-07-30T10:46:46.220Z,97861.88
2018-07-30T10:49:13.906Z,97859.27
2018-07-30T10:51:41.587Z,97859.30
2018-07-30T10:54:09.164Z,97867.22
2018-07-30T10:56:36.762Z,97862.71
2018-07-30T10:59:04.363Z,97860.12
2018-07-30T11:01:31.960Z,97860.89
2018-07-30T11:04:00.692Z,97865.14
2018-07-30T11:06:28.307Z,97858.54
2018-07-30T11:08:55.910Z,97856.34
2018-07-30T11:11:23.593Z,97854.08
2018-07-30T11:13:51.244Z,97848.77
2018-07-30T11:16:19.212Z,97845.42
2018-07-30T11:18:46.935Z,97841.24
2018-07-30T11:21:14.549Z,97844.43
2018-07-30T11:23:42.206Z,97839.95
2018-07-30T11:26:09.922Z,97839.05
2018-07-30T11:28:37.535Z,97834.56
2018-07-30T11:31:05.211Z,97827.64
2018-07-30T11:33:32.897Z,97833.58
2018-07-30T11:36:00.794Z,97835.51
2018-07-30T11:38:28.633Z,97833.58
2018-07-30T11:40:56.251Z,97842.99
2018-07-30T11:43:23.828Z,97828.58
2018-07-30T11:45:51.590Z,97834.03
2018-07-30T11:48:20.577Z,97831.47
2018-07-30T11:50:48.177Z,97833.91
2018-07-30T11:53:15.841Z,97835.86
2018-07-30T11:55:43.432Z,97829.04
2018-07-30T11:58:11.113Z,97830.05
2018-07-30T12:00:38.711Z,97824.62
2018-07-30T12:03:06.464Z,97828.28
2018-07-30T12:05:34.118Z,97815.17
2018-07-30T12:08:01.723Z,97829.45
2018-07-30T12:10:29.319Z,97821.77
2018-07-30T12:12:56.908Z,97823.44
2018-07-30T12:15:24.559Z,97817.78
2018-07-30T12:17:52.217Z,97816.80
2018-07-30T12:20:20.276Z,97813.41
2018-07-30T12:22:47.835Z,97819.45
2018-07-30T12:25:15.832Z,97823.77
2018-07-30T12:27:43.966Z,97818.69
2018-07-30T12:30:11.566Z,97815.79
2018-07-30T12:32:39.507Z,97811.38
2018-07-30T12:35:07.140Z,97815.05
2018-07-30T12:37:34.829Z,97812.13
2018-07-30T12:40:02.852Z,97810.66
2018-07-30T12:42:30.644Z,97816.44
2018-07-30T12:44:58.466Z,97807.66
2018-07-30T12:47:26.143Z,97810.42
2018-07-30T12:49:53.720Z,97797.25
2018-07-30T12:52:21.309Z,97801.45
2018-07-30T12:54:48.943Z,97797.27
2018-07-30T12:57:16.539Z,97795.13
2018-07-30T12:59:44.153Z,97792.12
2018-07-30T13:02:11.775Z,97787.47
2018-07-30T13:04:39.379Z,97792.13
2018-07-30T13:07:06.976Z,97780.56
2018-07-30T13:09:34.648Z,97780.61
2018-07-30T13:12:02.241Z,97782.82
2018-07-30T13:14:30.009Z,97784.98
2018-07-30T13:16:57.720Z,97779.38
2018-07-30T13:19:25.291Z,97776.52
2018-07-30T13:21:52.908Z,97780.75
2018-07-30T13:24:20.654Z,97783.20
2018-07-30T13:26:48.394Z,97786.95
2018-07-30T13:29:24.029Z,97775.16
2018-07-30T13:31:51.672Z,97767.98
2018-07-30T13:34:19.316Z,97771.36
2018-07-30T13:36:46.959Z,97773.42
2018-07-30T13:39:14.557Z,97783.64
2018-07-30T13:41:42.996Z,97762.52
2018-07-30T13:44:14.682Z,97772.09
2018-07-30T13:46:42.524Z,97768.73
2018-07-30T13:49:10.399Z,97764.82
2018-07-30T13:51:39.493Z,97763.03
2018-07-30T13:54:07.400Z,97759.22
2018-07-30T13:56:34.989Z,97755.98
2018-07-30T13:59:02.706Z,97759.44
2018-07-30T14:01:32.841Z,97756.81
2018-07-30T14:04:00.630Z,97753.11
2018-07-30T14:06:28.709Z,97750.44
2018-07-30T14:08:56.323Z,97748.17
2018-07-30T14:11:23.982Z,97751.72
2018-07-30T14:13:51.976Z,97752.23
2018-07-30T14:16:19.601Z,97753.55
2018-07-30T14:18:47.411Z,97758.09
2018-07-30T14:21:15.088Z,97755.78
2018-07-30T14:23:42.706Z,97749.47
2018-07-30T14:26:10.424Z,97750.38
2018-07-30T14:28:38.072Z,97745.19
2018-07-30T14:31:05.821Z,97747.88
2018-07-30T14:33:33.527Z,97751.92
2018-07-30T14:36:01.218Z,97748.28
2018-07-30T14:38:28.861Z,97739.73
2018-07-30T14:40:56.509Z,97751.41
2018-07-30T14:43:24.152Z,97742.41
2018-07-30T14:45:51.743Z,97747.27
2018-07-30T14:48:19.449Z,97740.77
2018-07-30T14:50:47.071Z,97739.73
2018-07-30T14:53:14.721Z,97738.06
2018-07-30T14:55:42.388Z,97735.48
2018-07-30T14:58:10.122Z,97734.20
2018-07-30T15:00:37.748Z,97738.33
2018-07-30T15:03:05.427Z,97734.92
2018-07-30T15:05:33.071Z,97741.98
2018-07-30T15:08:00.701Z,97737.50
2018-07-30T15:10:28.482Z,97736.27
2018-07-30T15:12:56.129Z,97734.75
2018-07-30T15:15:23.780Z,97734.81
2018-07-30T15:17:51.548Z,97731.16
2018-07-30T15:20:19.215Z,97732.92
2018-07-30T15:22:46.855Z,97732.75
2018-07-30T15:25:14.592Z,97730.39
2018-07-30T15:27:43.380Z,97732.42
2018-07-30T15:30:11.611Z,97729.91
2018-07-30T15:32:39.304Z,97728.86
2018-07-30T15:35:07.024Z,97729.95
2018-07-30T15:37:34.807Z,97723.20
2018-07-30T15:40:02.476Z,97720.09
2018-07-30T15:42:30.162Z,97723.67
2018-07-30T15:44:58.119Z,97722.98
2018-07-30T15:47:25.757Z,97723.70
2018-07-30T15:49:53.367Z,97730.36
2018-07-30T15:52:20.948Z,97728.42
2018-07-30T15:54:48.599Z,97734.55
2018-07-30T15:57:16.841Z,97729.30
2018-07-30T15:59:44.966Z,97731.55
2018-07-30T16:02:12.644Z,97724.39
2018-07-30T16:04:40.281Z,97724.45
2018-07-30T16:07:07.881Z,97722.77
2018-07-30T16:09:36.398Z,97722.87
2018-07-30T16:12:04.596Z,97730.61
2018-07-30T16:14:32.426Z,97730.89
2018-07-30T16:17:00.176Z,97727.02
2018-07-30T16:19:27.815Z,97729.56
2018-07-30T16:21:55.564Z,97730.88
2018-07-30T16:24:23.723Z,97729.33
2018-07-30T16:26:51.768Z,97728.81
2018-07-30T16:29:19.704Z,97731.52
2018-07-30T16:31:47.356Z,97733.55
2018-07-30T16:34:15.003Z,97733.50
2018-07-30T16:36:42.644Z,97732.80
2018-07-30T16:39:11.076Z,97727.50
2018-07-30T16:41:38.832Z,97732.28
2018-07-30T16:44:06.938Z,97719.22
2018-07-30T16:46:34.557Z,97725.78
2018-07-30T16:49:05.380Z,97728.59
2018-07-30T16:51:35.022Z,97729.58
2018-07-30T16:54:03.952Z,97730.69
2018-07-30T16:56:35.686Z,97729.17
2018-07-30T16:59:05.569Z,97725.20
2018-07-30T17:01:34.833Z,97718.10
2018-07-30T17:04:03.899Z,97722.24
2018-07-30T17:06:33.124Z,97718.56
2018-07-30T17:09:04.208Z,97719.20
2018-07-30T17:11:33.046Z,97712.34
2018-07-30T17:14:02.568Z,97718.48
2018-07-30T17:16:31.148Z,97720.77
2018-07-30T17:19:00.148Z,97720.31
2018-07-30T17:21:29.640Z,97722.81
2018-07-30T17:23:58.528Z,97715.69
2018-07-30T17:26:29.779Z,97721.48
2018-07-30T17:28:58.555Z,97716.28
2018-07-30T17:31:27.430Z,97720.65
2018-07-30T17:33:55.664Z,97726.02
2018-07-30T17:36:23.996Z,97729.58
2018-07-30T17:38:53.377Z,97726.45
2018-07-30T17:41:21.867Z,97731.17
2018-07-30T17:43:50.487Z,97728.33
2018-07-30T17:46:18.204Z,97728.34
2018-07-30T17:48:45.812Z,97734.31
2018-07-30T17:51:13.480Z,97734.14
2018-07-30T17:53:41.149Z,97738.84
2018-07-30T17:56:08.810Z,97737.20
2018-07-30T17:58:36.463Z,97741.56
2018-07-30T18:01:04.141Z,97745.98
2018-07-30T18:03:31.916Z,97742.02
2018-07-30T18:05:59.581Z,97748.20
2018-07-30T18:08:27.219Z,97746.85
2018-07-30T18:10:54.923Z,97749.22
2018-07-30T18:13:22.543Z,97750.10
2018-07-30T18:15:50.132Z,97749.12
2018-07-30T18:18:17.719Z,97746.38
2018-07-30T18:20:45.347Z,97748.27
2018-07-30T18:23:13.011Z,97755.19
2018-07-30T18:25:40.608Z,97759.27
2018-07-30T18:28:08.227Z,97763.27
2018-07-30T18:30:35.823Z,97766.63
2018-07-30T18:33:03.437Z,97764.15
2018-07-30T18:35:31.509Z,97773.75
2018-07-30T18:37:59.088Z,97769.77
2018-07-30T18:40:26.685Z,97772.82
2018-07-30T18:42:54.436Z,97775.08
2018-07-30T18:45:22.036Z,97775.93
2018-07-30T18:47:49.636Z,97774.50
2018-07-30T18:50:17.264Z,97774.66
2018-07-30T18:52:44.836Z,97786.93
2018-07-30T18:55:12.460Z,97789.20
2018-07-30T18:57:40.165Z,97788.57
2018-07-30T19:00:07.846Z,97787.93
2018-07-30T19:02:35.490Z,97792.58
2018-07-30T19:05:03.319Z,97794.13
2018-07-30T19:07:30.965Z,97796.60
2018-07-30T19:09:58.543Z,97797.45
2018-07-30T19:12:26.244Z,97799.52
2018-07-30T19:14:53.851Z,97802.04
2018-07-30T19:17:21.504Z,97808.43
2018-07-30T19:19:49.200Z,97817.96
2018-07-30T19:22:16.881Z,97817.41
2018-07-30T19:24:44.480Z,97816.92
2018-07-30T19:27:12.094Z,97812.82
2018-07-30T19:29:39.910Z,97815.07
2018-07-30T19:32:07.893Z,97824.13
2018-07-30T19:34:35.542Z,97824.46
2018-07-30T19:37:03.148Z,97826.22
2018-07-30T19:39:30.795Z,97825.05
2018-07-30T19:41:58.444Z,97828.06
2018-07-30T19:44:26.077Z,97834.70
2018-07-30T19:46:53.668Z,97840.54
2018-07-30T19:49:22.400Z,97835.67
2018-07-30T19:51:50.062Z,97834.64
2018-07-30T19:54:17.639Z,97835.48
2018-07-30T19:56:45.283Z,97838.13
2018-07-30T19:59:12.921Z,97848.38
2018-07-30T20:01:40.553Z,97847.23
2018-07-30T20:04:08.192Z,97841.75
2018-07-30T20:06:35.875Z,97843.70
2018-07-30T20:09:05.623Z,97847.77
2018-07-30T20:11:33.275Z,97850.19
2018-07-30T20:14:00.867Z,97846.65
2018-07-30T20:16:28.987Z,97844.10
2018-07-30T20:18:56.674Z,97850.27
2018-07-30T20:21:24.460Z,97855.53
2018-07-30T20:23:52.040Z,97850.88
2018-07-30T20:26:19.815Z,97855.47
2018-07-30T20:28:47.956Z,97847.58
2018-07-30T20:31:21.279Z,97851.37
2018-07-30T20:33:48.924Z,97858.05
2018-07-30T20:36:16.583Z,97863.38
2018-07-30T20:38:44.250Z,97857.44
2018-07-30T20:41:11.936Z,97872.45
2018-07-30T20:43:39.571Z,97870.19
2018-07-30T20:46:07.362Z,97866.95
2018-07-30T20:48:35.027Z,97863.80
2018-07-30T20:51:02.652Z,97870.86
2018-07-30T20:53:31.103Z,97869.27
2018-07-30T20:55:59.978Z,97873.33
2018-07-30T20:58:28.713Z,97868.00
2018-07-30T21:00:56.322Z,97878.56
2018-07-30T21:03:24.032Z,97875.41
2018-07-30T21:05:51.952Z,97879.53
2018-07-30T21:08:19.836Z,97876.38
2018-07-30T21:10:47.559Z,97882.25
2018-07-30T21:13:16.278Z,97878.64
2018-07-30T21:15:43.911Z,97876.05
2018-07-30T21:18:11.648Z,97874.49
2018-07-30T21:20:39.296Z,97878.56
2018-07-30T21:23:06.963Z,97880.16
2018-07-30T21:25:34.582Z,97878.78
2018-07-30T21:28:02.208Z,97879.41
2018-07-30T21:30:29.939Z,97874.09
2018-07-30T21:32:57.613Z,97882.89
2018-07-30T21:35:25.219Z,97884.07
2018-07-30T21:37:52.945Z,97881.13
2018-07-30T21:40:20.620Z,97885.70
2018-07-30T21:42:48.401Z,97881.63
2018-07-30T21:45:16.041Z,97886.95
2018-07-30T21:47:43.789Z,97882.54
2018-07-30T21:50:12.541Z,97884.05
2018-07-30T21:52:40.161Z,97884.92
2018-07-30T21:55:07.778Z,97887.53
2018-07-30T21:57:35.465Z,97875.98
2018-07-30T22:00:03.276Z,97884.18
2018-07-30T22:02:30.957Z,97889.41
2018-07-30T22:04:58.572Z,97896.31
2018-07-30T22:07:26.201Z,97893.55
2018-07-30T22:09:54.500Z,97891.88
2018-07-30T22:12:22.233Z,97883.77
2018-07-30T22:14:49.860Z,97884.55
2018-07-30T22:17:17.746Z,97880.86
2018-07-30T22:19:46.015Z,97886.34
2018-07-30T22:22:14.042Z,97886.09
2018-07-30T22:24:41.708Z,97884.52
2018-07-30T22:27:09.298Z,97885.55
2018-07-30T22:29:36.958Z,97882.89
2018-07-30T22:32:04.716Z,97884.90
2018-07-30T22:34:32.392Z,97881.48
2018-07-30T22:37:00.092Z,97882.02
2018-07-30T22:39:27.691Z,97878.63
2018-07-30T22:41:55.308Z,97884.11
2018-07-30T22:44:23.012Z,97890.86
2018-07-30T22:46:50.608Z,97890.98
2018-07-30T22:49:18.233Z,97889.21
2018-07-30T22:51:45.893Z,97895.66
2018-07-30T22:54:13.609Z,97886.72
2018-07-30T22:56:41.272Z,97893.52
2018-07-30T22:59:08.879Z,97889.48
2018-07-30T23:01:36.518Z,97884.04
2018-07-30T23:04:04.178Z,97885.82
2018-07-30T23:06:32.033Z,97881.99
2018-07-30T23:08:59.855Z,97881.33
2018-07-30T23:11:27.527Z,97886.27
2018-07-30T23:13:55.208Z,97884.48
2018-07-30T23:16:22.910Z,97881.55
2018-07-30T23:18:50.494Z,97882.88
2018-07-30T23:21:18.197Z,97877.82
2018-07-30T23:23:45.779Z,97881.02
2018-07-30T23:26:13.478Z,97881.51
2018-07-30T23:28:41.164Z,97884.67
2018-07-30T23:31:08.772Z,97886.52
2018-07-30T23:33:36.550Z,97881.06
2018-07-30T23:36:04.172Z,97883.58
2018-07-30T23:38:31.812Z,97879.72
2018-07-30T23:40:59.530Z,97879.23
2018-07-30T23:43:27.333Z,97880.44
2018-07-30T23:45:55.009Z,97881.55
2018-07-30T23:48:22.619Z,97884.14
2018-07-30T23:50:50.239Z,97887.24
2018-07-30T23:53:17.864Z,97885.97
2018-07-30T23:55:45.444Z,97884.00
2018-07-30T23:58:13.179Z,97878.39
